Time;durP1;ratioP1;P1;durP2;ratioP2;P2;SDS_P1;SDS_P2;PMS_P1;PMS_P2;Temp;Humidity;BMP_temperature;BMP_pressure;BME280_temperature;BME280_humidity;BME280_pressure;Samples;Min_cycle;Max_cycle;Signal;HPM_P1;HPM_P2
2022/04/26 03:37:23;;;;;;;23.77;13.07;;;8.40;99.90;;;;;;4897783;29;20218;-69
2022/04/26 03:39:50;;;;;;;24.10;13.37;;;8.50;99.90;;;;;;4895775;29;20227;-67
2022/04/26 03:42:17;;;;;;;22.67;13.33;;;8.60;99.90;;;;;;4896319;29;20214;-66
2022/04/26 03:44:43;;;;;;;22.77;13.13;;;8.50;99.90;;;;;;4897245;29;20257;-69
2022/04/26 03:47:10;;;;;;;21.53;13.07;;;8.50;99.90;;;;;;4896331;29;20526;-68
2022/04/26 03:49:37;;;;;;;23.03;13.60;;;8.40;99.90;;;;;;4893598;29;20231;-68
2022/04/26 03:52:04;;;;;;;22.97;13.40;;;8.30;99.90;;;;;;4896541;29;20204;-69
2022/04/26 03:54:31;;;;;;;23.30;13.33;;;8.20;99.90;;;;;;4892361;29;20217;-68
2022/04/26 03:56:58;;;;;;;21.60;12.83;;;8.40;99.90;;;;;;4896819;29;20202;-69
2022/04/26 03:59:24;;;;;;;20.47;11.67;;;8.40;99.90;;;;;;4897691;29;20561;-67
2022/04/26 04:01:51;;;;;;;22.47;12.90;;;8.50;99.90;;;;;;4893802;29;20214;-68
2022/04/26 04:04:18;;;;;;;22.13;12.10;;;8.50;99.90;;;;;;4895289;29;20207;-67
2022/04/26 04:06:45;;;;;;;17.77;10.63;;;8.50;99.90;;;;;;4898520;29;20203;-68
2022/04/26 04:09:12;;;;;;;18.27;10.90;;;8.40;99.90;;;;;;4898535;29;20201;-69
2022/04/26 04:11:38;;;;;;;15.87;9.77;;;8.40;99.90;;;;;;4897381;29;20218;-69
2022/04/26 04:14:05;;;;;;;14.53;8.90;;;8.40;99.90;;;;;;4899176;29;20208;-69
2022/04/26 04:16:32;;;;;;;13.10;7.83;;;8.40;99.90;;;;;;4894037;29;20206;-70
2022/04/26 04:21:45;;;;;;;10.90;6.17;;;8.40;99.90;;;;;;4889846;29;20207;-71
2022/04/26 04:24:13;;;;;;;13.20;6.77;;;8.40;99.90;;;;;;4897763;29;20209;-71
2022/04/26 04:26:40;;;;;;;14.90;6.80;;;8.40;99.90;;;;;;4906569;29;20200;-67
2022/04/26 04:29:08;;;;;;;10.03;6.33;;;8.40;99.90;;;;;;4901826;29;20213;-71
2022/04/26 04:31:35;;;;;;;12.23;6.63;;;8.40;99.90;;;;;;4890492;29;20200;-70
2022/04/26 04:34:02;;;;;;;11.60;6.10;;;8.40;99.90;;;;;;4896450;29;20293;-68
2022/04/26 04:36:29;;;;;;;11.27;6.70;;;8.50;99.90;;;;;;4893300;29;20273;-68
2022/04/26 04:38:56;;;;;;;11.33;6.47;;;8.40;99.90;;;;;;4892942;29;20237;-68
2022/04/26 04:41:24;;;;;;;10.90;6.57;;;8.50;99.90;;;;;;4891306;29;21061;-70
2022/04/26 04:43:51;;;;;;;10.60;6.23;;;8.50;99.90;;;;;;4893947;29;20578;-68
2022/04/26 04:46:17;;;;;;;11.33;6.30;;;8.50;99.90;;;;;;4894297;29;20194;-69
2022/04/26 04:48:44;;;;;;;12.00;6.37;;;8.50;99.90;;;;;;4892533;29;20266;-68
2022/04/26 04:51:11;;;;;;;11.90;6.20;;;8.60;99.90;;;;;;4892978;29;20241;-68
2022/04/26 04:53:37;;;;;;;9.33;5.87;;;8.60;99.90;;;;;;4894334;29;20339;-69
2022/04/26 04:56:08;;;;;;;9.83;6.20;;;8.70;99.90;;;;;;4894616;29;20562;-68
2022/04/26 04:58:35;;;;;;;8.17;5.60;;;8.70;99.90;;;;;;4890094;29;20219;-68
2022/04/26 05:01:02;;;;;;;9.90;5.97;;;8.70;99.90;;;;;;4895290;29;20281;-69
2022/04/26 05:03:29;;;;;;;8.93;5.67;;;8.70;99.90;;;;;;4888265;29;20226;-69
2022/04/26 05:05:55;;;;;;;8.53;5.57;;;8.70;99.90;;;;;;4892904;29;20261;-70
2022/04/26 05:08:24;;;;;;;9.10;5.87;;;8.80;99.90;;;;;;4888611;29;21785;-68
2022/04/26 05:10:51;;;;;;;8.13;5.30;;;8.70;99.90;;;;;;4893428;29;20226;-70
2022/04/26 05:13:18;;;;;;;7.73;5.17;;;8.70;99.90;;;;;;4897902;29;20689;-69
2022/04/26 05:15:45;;;;;;;8.67;5.07;;;8.70;99.90;;;;;;4892115;29;20200;-68
2022/04/26 05:18:12;;;;;;;8.20;5.33;;;8.70;99.90;;;;;;4893928;29;20699;-69
2022/04/26 05:20:39;;;;;;;8.03;5.43;;;8.70;99.90;;;;;;4907373;29;20293;-68
2022/04/26 05:25:51;;;;;;;9.40;5.60;;;8.80;99.90;;;;;;4892540;29;20245;-68
2022/04/26 05:28:18;;;;;;;7.60;5.03;;;8.80;99.90;;;;;;4895124;29;20199;-68
2022/04/26 05:30:52;;;;;;;7.30;4.80;;;8.80;99.90;;;;;;4893778;29;20268;-69
2022/04/26 05:33:18;;;;;;;6.30;4.47;;;8.90;99.90;;;;;;4895438;29;20238;-72
2022/04/26 05:35:45;;;;;;;7.30;4.53;;;9.00;99.90;;;;;;4912066;29;20208;-67
2022/04/26 05:38:11;;;;;;;7.90;5.20;;;9.10;99.90;;;;;;4898141;29;20722;-70
2022/04/26 05:40:38;;;;;;;8.70;5.33;;;9.10;99.90;;;;;;4896346;29;20228;-69
2022/04/26 05:43:05;;;;;;;7.23;5.27;;;9.10;99.90;;;;;;4888630;29;20689;-72
2022/04/26 05:45:31;;;;;;;6.77;4.90;;;9.10;99.90;;;;;;4892735;29;20283;-70
2022/04/26 05:47:58;;;;;;;7.50;5.17;;;9.10;99.90;;;;;;4893413;29;20708;-70
2022/04/26 05:50:25;;;;;;;7.63;4.93;;;9.30;99.90;;;;;;4892525;29;20216;-72
2022/04/26 05:52:52;;;;;;;7.03;4.57;;;9.30;99.90;;;;;;4891268;29;20202;-68
2022/04/26 05:55:18;;;;;;;8.23;5.30;;;9.30;99.90;;;;;;4892457;29;20219;-70
2022/04/26 05:57:45;;;;;;;8.10;5.10;;;9.40;99.90;;;;;;4890527;29;20584;-71
2022/04/26 06:00:14;;;;;;;8.20;5.60;;;9.30;99.90;;;;;;4905568;29;20224;-70
2022/04/26 06:02:42;;;;;;;7.13;5.13;;;9.20;99.90;;;;;;4906827;29;20211;-70
2022/04/26 06:05:15;;;;;;;8.57;5.27;;;9.30;99.90;;;;;;4889499;29;20572;-68
2022/04/26 06:07:42;;;;;;;9.47;5.73;;;9.40;99.90;;;;;;4889209;29;20219;-69
2022/04/26 06:10:10;;;;;;;9.10;5.90;;;9.40;99.90;;;;;;4913567;29;20235;-70
2022/04/26 06:12:39;;;;;;;8.57;5.60;;;9.50;99.90;;;;;;4890816;29;20303;-69
2022/04/26 06:15:06;;;;;;;8.67;5.67;;;9.50;99.90;;;;;;4891342;29;20206;-70
2022/04/26 06:17:32;;;;;;;9.10;5.60;;;9.60;99.90;;;;;;4894924;29;20200;-70
2022/04/26 06:19:59;;;;;;;9.97;6.03;;;9.60;99.90;;;;;;4890648;29;20860;-69
2022/04/26 06:22:26;;;;;;;9.40;6.40;;;9.60;99.90;;;;;;4892623;29;20207;-69
2022/04/26 06:24:54;;;;;;;9.33;6.30;;;9.60;99.90;;;;;;4892239;29;20199;-68
2022/04/26 06:27:21;;;;;;;8.37;6.33;;;9.70;99.90;;;;;;4892266;29;20212;-69
2022/04/26 06:29:48;;;;;;;10.10;6.33;;;9.60;99.90;;;;;;4893163;29;20266;-69
2022/04/26 06:32:15;;;;;;;7.80;5.57;;;9.70;99.90;;;;;;4892694;29;20201;-68
2022/04/26 06:34:41;;;;;;;8.50;6.07;;;9.70;99.90;;;;;;4892440;29;20205;-69
2022/04/26 06:37:08;;;;;;;10.67;6.87;;;9.90;99.90;;;;;;4922924;29;20193;-70
2022/04/26 06:39:34;;;;;;;10.33;6.13;;;10.00;99.90;;;;;;4893991;29;20238;-68
2022/04/26 06:42:02;;;;;;;13.30;7.13;;;10.10;99.90;;;;;;4889968;29;20196;-70
2022/04/26 06:44:29;;;;;;;9.53;6.67;;;9.90;99.90;;;;;;4890339;29;20681;-68
2022/04/26 06:47:00;;;;;;;10.50;6.83;;;10.00;99.90;;;;;;4891290;29;20292;-69
2022/04/26 06:49:27;;;;;;;10.73;6.83;;;10.00;99.90;;;;;;4890304;29;20227;-67
2022/04/26 06:51:54;;;;;;;11.50;7.17;;;10.00;99.90;;;;;;4887725;29;20727;-68
2022/04/26 06:54:20;;;;;;;11.93;7.07;;;10.00;99.90;;;;;;4905762;29;20517;-68
2022/04/26 06:56:47;;;;;;;10.60;6.50;;;9.90;99.90;;;;;;4895741;29;20210;-69
2022/04/26 06:59:14;;;;;;;12.20;7.53;;;10.00;99.90;;;;;;4890695;29;20236;-69
2022/04/26 07:01:40;;;;;;;11.23;6.53;;;10.00;99.90;;;;;;4895465;29;20217;-66
2022/04/26 07:04:08;;;;;;;10.67;7.43;;;10.00;99.90;;;;;;4898660;29;20198;-68
2022/04/26 07:06:37;;;;;;;12.03;6.53;;;10.00;99.90;;;;;;4892657;29;20542;-67
2022/04/26 07:09:04;;;;;;;11.40;7.07;;;10.00;99.90;;;;;;4895569;29;20674;-69
2022/04/26 07:11:31;;;;;;;10.73;6.80;;;10.00;99.90;;;;;;4893185;29;20217;-69
2022/04/26 07:13:58;;;;;;;11.83;7.40;;;10.00;99.90;;;;;;4897707;29;20703;-70
2022/04/26 07:16:25;;;;;;;11.90;7.10;;;10.00;99.90;;;;;;4896649;29;20216;-69
2022/04/26 07:18:51;;;;;;;11.20;7.33;;;10.10;99.90;;;;;;4898258;29;20220;-69
2022/04/26 07:21:18;;;;;;;11.20;7.07;;;10.10;99.90;;;;;;4894153;29;20246;-69
2022/04/26 07:23:45;;;;;;;12.70;6.93;;;10.20;99.90;;;;;;4896151;29;20215;-69
2022/04/26 07:26:12;;;;;;;12.00;7.40;;;10.20;99.90;;;;;;4894607;29;22236;-69
2022/04/26 07:28:39;;;;;;;10.33;6.77;;;10.20;99.90;;;;;;4896646;29;20202;-70
2022/04/26 07:31:08;;;;;;;10.20;6.80;;;10.20;99.90;;;;;;4895734;29;21052;-71
2022/04/26 07:36:22;;;;;;;11.30;7.30;;;10.10;99.90;;;;;;4894442;29;20204;-70
2022/04/26 07:38:49;;;;;;;10.80;6.97;;;10.00;99.90;;;;;;4897562;29;20565;-70
2022/04/26 07:41:16;;;;;;;10.57;6.73;;;9.90;99.90;;;;;;4888729;29;20573;-68
2022/04/26 07:43:44;;;;;;;12.83;7.00;;;10.00;99.90;;;;;;4881221;29;20204;-70
2022/04/26 07:46:15;;;;;;;8.43;6.17;;;10.20;99.90;;;;;;4885580;29;20569;-70
2022/04/26 07:48:43;;;;;;;10.40;6.63;;;10.10;99.90;;;;;;4880160;29;20290;-67
2022/04/26 07:51:11;;;;;;;10.33;6.17;;;10.00;99.90;;;;;;4884878;29;20252;-71
2022/04/26 07:53:38;;;;;;;8.73;5.87;;;10.20;99.90;;;;;;4876186;29;20572;-73
2022/04/26 07:56:06;;;;;;;8.07;5.80;;;10.30;99.90;;;;;;4884499;29;20215;-67
2022/04/26 07:58:32;;;;;;;9.07;6.00;;;10.40;99.90;;;;;;4886721;29;21371;-71
2022/04/26 08:01:00;;;;;;;9.00;5.77;;;10.30;99.90;;;;;;4882872;29;21132;-69
2022/04/26 08:03:27;;;;;;;8.60;5.37;;;10.40;99.90;;;;;;4882503;29;20213;-72
2022/04/26 08:05:55;;;;;;;9.27;5.97;;;10.40;99.90;;;;;;4886659;29;20204;-75
2022/04/26 08:08:21;;;;;;;10.37;6.30;;;10.10;99.90;;;;;;4892177;29;20201;-73
2022/04/26 08:10:55;;;;;;;13.90;6.50;;;10.00;99.90;;;;;;4891872;29;20236;-72
2022/04/26 08:13:22;;;;;;;8.80;6.10;;;10.20;99.90;;;;;;4885414;29;20212;-72
2022/04/26 08:15:49;;;;;;;13.80;6.30;;;10.10;99.90;;;;;;4880511;29;20220;-71
2022/04/26 08:18:16;;;;;;;9.33;5.83;;;10.00;99.90;;;;;;4886256;29;20265;-69
2022/04/26 08:20:44;;;;;;;10.80;6.10;;;10.10;99.90;;;;;;4882466;29;20227;-70
2022/04/26 08:23:11;;;;;;;8.87;5.80;;;10.20;99.90;;;;;;4883238;29;20205;-71
2022/04/26 08:28:28;;;;;;;7.20;5.00;;;10.10;99.90;;;;;;4884167;29;20579;-70
2022/04/26 08:30:58;;;;;;;7.67;5.40;;;10.10;99.90;;;;;;4884985;29;20235;-71
2022/04/26 08:33:25;;;;;;;8.83;5.17;;;10.00;99.90;;;;;;4889862;29;20209;-69
2022/04/26 08:35:51;;;;;;;8.27;5.30;;;10.00;99.90;;;;;;4882168;29;20218;-70
2022/04/26 08:38:34;;;;;;;7.30;5.13;;;9.90;99.90;;;;;;4887987;29;20302;-73
2022/04/26 08:41:00;;;;;;;8.33;5.30;;;10.00;99.90;;;;;;4886665;29;20216;-72
2022/04/26 08:43:33;;;;;;;5.97;4.07;;;10.10;99.90;;;;;;4881586;29;20193;-69
2022/04/26 08:46:01;;;;;;;5.80;3.97;;;10.10;99.90;;;;;;4884436;29;20200;-71
2022/04/26 08:51:13;;;;;;;6.97;4.17;;;10.20;99.90;;;;;;4885217;29;20231;-71
2022/04/26 08:53:40;;;;;;;7.43;4.17;;;10.20;99.90;;;;;;4882042;29;20549;-70
2022/04/26 08:56:07;;;;;;;7.33;4.10;;;10.10;99.90;;;;;;4885806;29;20208;-73
2022/04/26 08:58:35;;;;;;;6.57;4.10;;;10.30;99.90;;;;;;4884906;29;20242;-72
2022/04/26 09:01:22;;;;;;;5.40;3.80;;;10.30;99.90;;;;;;4887928;29;20232;-71
2022/04/26 09:03:55;;;;;;;5.20;4.03;;;10.30;99.90;;;;;;4881726;29;20675;-69
2022/04/26 09:06:39;;;;;;;5.47;3.70;;;10.50;99.90;;;;;;4881742;29;20321;-71
2022/04/26 09:09:17;;;;;;;6.33;3.67;;;10.60;99.90;;;;;;4885697;29;20260;-73
2022/04/26 09:11:44;;;;;;;4.53;3.83;;;10.70;99.90;;;;;;4884783;29;20204;-73
2022/04/26 09:14:35;;;;;;;4.77;3.50;;;10.70;99.90;;;;;;4885683;29;20209;-71
2022/04/26 09:17:07;;;;;;;9.87;4.17;;;10.80;99.90;;;;;;4881840;29;20200;-70
2022/04/26 09:19:47;;;;;;;4.87;3.97;;;10.40;99.90;;;;;;4883648;29;20919;-70
2022/04/26 09:22:26;;;;;;;6.23;4.20;;;10.40;99.90;;;;;;4880215;29;21390;-70
2022/04/26 09:24:54;;;;;;;6.20;3.73;;;10.20;99.90;;;;;;4882326;29;20267;-68
2022/04/26 09:27:22;;;;;;;5.43;3.30;;;10.00;99.90;;;;;;4884657;29;20612;-71
2022/04/26 09:29:49;;;;;;;4.13;2.67;;;9.70;99.90;;;;;;4886055;29;20854;-71
2022/04/26 09:32:16;;;;;;;3.80;2.73;;;9.50;99.90;;;;;;4883322;29;20590;-72
2022/04/26 09:34:42;;;;;;;3.80;2.17;;;9.20;99.90;;;;;;4888552;29;20214;-73
2022/04/26 09:37:11;;;;;;;3.30;2.07;;;9.10;99.90;;;;;;4892230;29;20213;-70
2022/04/26 09:39:39;;;;;;;3.17;2.17;;;9.00;99.90;;;;;;4888306;29;20719;-73
2022/04/26 09:42:36;;;;;;;4.77;2.00;;;8.90;99.90;;;;;;4894130;29;20224;-71
2022/04/26 09:45:08;;;;;;;4.07;3.10;;;8.90;99.90;;;;;;4895026;29;20235;-71
2022/04/26 09:47:39;;;;;;;5.57;3.60;;;8.90;99.90;;;;;;4889798;29;20212;-74
2022/04/26 09:50:09;;;;;;;8.00;3.83;;;9.00;99.90;;;;;;4889191;29;20236;-74
2022/04/26 09:52:37;;;;;;;4.63;2.87;;;9.10;99.90;;;;;;4887733;29;20218;-75
2022/04/26 09:55:08;;;;;;;5.67;3.57;;;9.20;99.90;;;;;;4888607;29;20212;-73
2022/04/26 09:57:36;;;;;;;5.90;3.73;;;9.40;99.90;;;;;;4885799;29;20211;-74
2022/04/26 10:00:10;;;;;;;6.03;3.93;;;9.60;99.90;;;;;;4885403;29;20231;-73
2022/04/26 10:02:53;;;;;;;6.90;4.67;;;9.70;99.90;;;;;;4886558;29;20561;-73
2022/04/26 10:05:22;;;;;;;4.27;3.17;;;10.00;99.90;;;;;;4887706;29;20489;-76
2022/04/26 10:07:51;;;;;;;4.23;3.30;;;10.10;99.90;;;;;;4883993;29;20250;-73
2022/04/26 10:10:20;;;;;;;4.17;3.23;;;10.20;99.90;;;;;;4881471;29;20220;-72
2022/04/26 10:13:31;;;;;;;3.43;2.30;;;10.40;99.90;;;;;;4888153;29;20690;-72
2022/04/26 10:15:35;;;;;;;3.83;2.50;;;10.60;99.90;;;;;;4882580;29;20689;-73
2022/04/26 10:18:25;;;;;;;3.20;2.30;;;10.70;99.90;;;;;;4885098;29;20215;-73
2022/04/26 10:20:51;;;;;;;2.53;1.97;;;10.70;99.90;;;;;;4882914;29;20635;-73
2022/04/26 10:23:18;;;;;;;3.50;2.00;;;10.70;99.90;;;;;;4882842;29;20274;-72
2022/04/26 10:26:22;;;;;;;2.37;1.93;;;10.70;99.90;;;;;;4888079;29;20205;-69
2022/04/26 10:28:57;;;;;;;2.67;1.80;;;10.50;99.90;;;;;;4883157;29;20213;-74
2022/04/26 10:31:40;;;;;;;1.93;1.57;;;10.60;99.90;;;;;;4885246;29;20210;-71
2022/04/26 10:34:31;;;;;;;1.93;1.70;;;10.30;99.90;;;;;;4883894;29;20263;-72
2022/04/26 10:37:00;;;;;;;3.30;1.80;;;10.30;99.90;;;;;;4890037;29;20216;-73
2022/04/26 10:39:36;;;;;;;1.90;1.40;;;10.30;99.90;;;;;;4888343;29;20223;-71
2022/04/26 10:42:18;;;;;;;3.37;1.63;;;10.30;99.90;;;;;;4886518;29;20675;-71
2022/04/26 10:44:47;;;;;;;2.00;1.80;;;10.30;99.90;;;;;;4883467;29;20596;-71
2022/04/26 10:47:19;;;;;;;1.87;1.67;;;10.30;99.90;;;;;;4885071;29;20204;-76
2022/04/26 10:49:47;;;;;;;2.77;1.60;;;10.40;99.90;;;;;;4885406;29;20626;-74
2022/04/26 10:54:55;;;;;;;2.77;1.90;;;10.50;99.90;;;;;;4886674;29;20630;-73
2022/04/26 10:57:26;;;;;;;2.83;1.67;;;10.80;99.90;;;;;;4885786;29;20262;-78
2022/04/26 10:59:59;;;;;;;2.60;1.93;;;10.90;99.90;;;;;;4886496;29;20648;-74
2022/04/26 11:02:31;;;;;;;2.17;1.80;;;11.00;99.90;;;;;;4902402;29;20204;-74
2022/04/26 11:05:04;;;;;;;2.27;1.80;;;11.10;99.90;;;;;;4888377;29;20201;-71
2022/04/26 11:07:31;;;;;;;2.40;2.00;;;11.00;99.90;;;;;;4888011;29;20293;-72
2022/04/26 11:10:00;;;;;;;3.20;2.37;;;11.00;99.90;;;;;;4885270;29;20226;-73
2022/04/26 11:12:29;;;;;;;2.33;2.07;;;11.10;99.90;;;;;;4888757;29;20566;-72
2022/04/26 11:14:59;;;;;;;2.70;1.93;;;11.20;99.90;;;;;;4888036;29;20218;-74
2022/04/26 11:17:27;;;;;;;2.73;2.00;;;11.40;99.90;;;;;;4887354;29;20212;-82
2022/04/26 11:19:59;;;;;;;2.73;2.00;;;11.60;99.90;;;;;;4886366;29;20273;-84
2022/04/26 11:22:27;;;;;;;2.60;1.93;;;11.70;99.90;;;;;;4889863;29;20217;-79
2022/04/26 11:28:10;;;;;;;2.40;2.10;;;11.80;99.90;;;;;;4885594;29;20229;-79
2022/04/26 11:30:42;;;;;;;2.57;2.07;;;11.90;99.90;;;;;;4884793;29;21061;-81
2022/04/26 11:33:11;;;;;;;2.40;2.20;;;12.00;99.90;;;;;;4887305;29;20298;-81
2022/04/26 11:35:39;;;;;;;3.03;2.10;;;12.10;99.90;;;;;;4882160;29;20610;-79
2022/04/26 11:38:11;;;;;;;2.60;1.83;;;12.20;99.90;;;;;;4885865;29;20660;-77
2022/04/26 11:40:41;;;;;;;2.50;2.07;;;12.30;99.90;;;;;;4884563;29;20235;-82
2022/04/26 11:43:18;;;;;;;3.33;2.17;;;12.10;99.90;;;;;;4884912;29;20589;-77
2022/04/26 11:45:47;;;;;;;2.33;2.03;;;12.30;99.90;;;;;;4903902;29;20238;-74
2022/04/26 11:48:15;;;;;;;3.30;2.00;;;12.10;99.90;;;;;;4883646;29;20208;-73
2022/04/26 11:50:44;;;;;;;2.53;2.00;;;12.40;99.90;;;;;;4888639;29;20242;-76
2022/04/26 11:53:14;;;;;;;2.80;2.00;;;12.40;99.90;;;;;;4884220;29;20613;-74
2022/04/26 11:55:58;;;;;;;2.17;1.90;;;12.50;99.90;;;;;;4885402;29;20228;-78
2022/04/26 11:58:27;;;;;;;2.27;1.70;;;12.40;99.90;;;;;;4894316;29;20208;-76
2022/04/26 12:01:10;;;;;;;3.10;2.13;;;12.70;99.90;;;;;;4887362;29;20704;-76
2022/04/26 12:03:56;;;;;;;2.20;1.73;;;12.60;99.90;;;;;;4884135;29;20209;-76
2022/04/26 12:06:32;;;;;;;3.97;1.90;;;12.60;99.90;;;;;;4886066;29;20228;-78
2022/04/26 12:09:12;;;;;;;2.33;1.90;;;12.40;99.90;;;;;;4886877;29;20206;-76
2022/04/26 12:11:40;;;;;;;2.30;1.80;;;12.40;99.90;;;;;;4888946;29;20676;-78
2022/04/26 12:14:16;;;;;;;3.33;2.20;;;12.40;99.90;;;;;;4898361;29;20891;-77
2022/04/26 12:16:48;;;;;;;1.93;1.73;;;12.50;99.90;;;;;;4886357;29;20205;-78
2022/04/26 12:19:15;;;;;;;2.47;1.63;;;12.50;99.90;;;;;;4885873;29;20325;-78
2022/04/26 12:21:52;;;;;;;3.73;2.00;;;12.40;99.90;;;;;;4886921;29;20204;-80
2022/04/26 12:24:25;;;;;;;3.03;1.90;;;12.10;99.90;;;;;;4889344;29;20214;-81
2022/04/26 12:27:02;;;;;;;2.27;1.77;;;12.10;99.90;;;;;;4886124;29;20218;-80
2022/04/26 12:29:40;;;;;;;5.37;2.10;;;11.70;99.90;;;;;;4901726;29;20251;-83
2022/04/26 12:32:08;;;;;;;3.30;2.40;;;11.80;99.90;;;;;;4889073;29;20204;-84
2022/04/26 12:34:36;;;;;;;3.00;1.97;;;11.70;99.90;;;;;;4889496;29;20212;-84
2022/04/26 12:37:15;;;;;;;3.80;2.10;;;11.60;99.90;;;;;;4901601;29;20209;-84
2022/04/26 12:39:50;;;;;;;3.73;2.20;;;11.60;99.90;;;;;;4884123;29;20229;-82
2022/04/26 12:42:26;;;;;;;4.07;2.10;;;11.60;99.90;;;;;;4886654;29;20208;-81
2022/04/26 12:44:56;;;;;;;3.10;1.90;;;11.50;99.90;;;;;;4884232;29;20197;-74
2022/04/26 12:50:28;;;;;;;2.57;1.57;;;10.80;99.90;;;;;;4886298;29;20598;-72
2022/04/26 12:52:56;;;;;;;2.43;1.73;;;10.60;99.90;;;;;;4882039;29;20208;-72
2022/04/26 12:55:38;;;;;;;4.53;1.30;;;10.30;99.90;;;;;;4885978;29;20212;-73
2022/04/26 12:58:06;;;;;;;1.87;1.57;;;10.10;99.90;;;;;;4887410;29;20212;-71
2022/04/26 13:00:36;;;;;;;2.60;1.60;;;10.10;99.90;;;;;;4883549;29;20224;-71
2022/04/26 13:03:05;;;;;;;2.00;1.40;;;10.10;99.90;;;;;;4883152;29;20212;-71
2022/04/26 13:05:50;;;;;;;1.83;1.53;;;10.10;99.90;;;;;;4887023;29;20656;-73
2022/04/26 13:08:19;;;;;;;1.93;1.43;;;10.10;99.90;;;;;;4882253;29;20753;-71
2022/04/26 13:10:47;;;;;;;2.80;1.67;;;10.20;99.90;;;;;;4883296;29;20602;-71
2022/04/26 13:13:15;;;;;;;1.60;1.40;;;10.30;99.90;;;;;;4888074;29;20208;-76
2022/04/26 13:15:42;;;;;;;2.00;1.40;;;10.40;99.90;;;;;;4885170;29;20221;-71
2022/04/26 13:18:12;;;;;;;1.80;1.53;;;10.40;99.90;;;;;;4909919;29;20200;-69
2022/04/26 13:20:39;;;;;;;2.80;1.53;;;10.50;99.90;;;;;;4886768;29;20236;-69
2022/04/26 13:23:14;;;;;;;1.70;1.53;;;10.60;99.90;;;;;;4885952;29;20196;-69
2022/04/26 13:25:41;;;;;;;3.50;1.60;;;10.70;99.90;;;;;;4884548;29;20212;-74
2022/04/26 13:28:09;;;;;;;1.97;1.50;;;10.70;99.90;;;;;;4885595;29;20661;-71
2022/04/26 13:30:36;;;;;;;2.17;1.40;;;10.60;99.90;;;;;;4884714;29;21746;-71
2022/04/26 13:33:03;;;;;;;2.03;1.47;;;10.70;99.90;;;;;;4884733;29;20211;-71
2022/04/26 13:35:30;;;;;;;1.83;1.47;;;10.50;99.90;;;;;;4887006;29;20208;-68
2022/04/26 13:38:00;;;;;;;1.70;1.43;;;10.60;99.90;;;;;;4884202;29;20651;-70
2022/04/26 13:40:27;;;;;;;1.47;1.33;;;10.70;99.90;;;;;;4899790;29;20255;-70
2022/04/26 13:42:56;;;;;;;2.03;1.47;;;11.00;99.90;;;;;;4885521;29;20208;-69
2022/04/26 13:45:23;;;;;;;2.47;1.60;;;11.20;99.90;;;;;;4882387;29;20204;-72
2022/04/26 13:47:51;;;;;;;2.10;1.43;;;11.40;99.90;;;;;;4884992;29;20193;-71
2022/04/26 13:50:18;;;;;;;2.50;1.50;;;11.60;99.90;;;;;;4882784;29;20225;-73
2022/04/26 13:52:45;;;;;;;2.60;1.90;;;11.80;99.90;;;;;;4882624;29;20243;-72
2022/04/26 13:55:17;;;;;;;2.20;1.50;;;11.80;99.90;;;;;;4885264;29;20203;-76
2022/04/26 13:57:44;;;;;;;2.40;1.63;;;11.80;99.90;;;;;;4885116;29;20214;-78
2022/04/26 14:00:13;;;;;;;2.93;1.70;;;11.70;99.90;;;;;;4882025;29;20228;-78
2022/04/26 14:02:46;;;;;;;3.23;1.80;;;11.50;99.90;;;;;;4884722;29;20211;-76
2022/04/26 14:05:18;;;;;;;1.90;1.57;;;11.40;99.90;;;;;;4884638;29;20289;-79
2022/04/26 14:07:46;;;;;;;2.63;1.80;;;11.30;99.90;;;;;;4883075;29;20632;-73
2022/04/26 14:10:14;;;;;;;3.57;2.30;;;11.30;99.90;;;;;;4885474;29;20225;-75
2022/04/26 14:12:41;;;;;;;3.50;2.10;;;11.20;99.90;;;;;;4888109;29;20213;-73
2022/04/26 14:23:28;;;;;;;2.90;2.23;;;11.00;99.90;;;;;;4887305;29;20226;-70
2022/04/26 14:25:59;;;;;;;3.73;2.47;;;10.90;99.90;;;;;;4888943;29;20224;-73
2022/04/26 14:28:26;;;;;;;3.33;2.67;;;10.70;99.90;;;;;;4887409;29;20628;-69
2022/04/26 14:30:53;;;;;;;3.63;2.77;;;10.50;99.90;;;;;;4885626;29;20248;-71
2022/04/26 14:33:19;;;;;;;5.47;3.30;;;10.40;99.90;;;;;;4886002;29;20218;-69
2022/04/26 14:35:46;;;;;;;4.90;3.40;;;10.40;99.90;;;;;;4887029;29;20216;-72
2022/04/26 14:38:13;;;;;;;4.87;3.20;;;10.40;99.90;;;;;;4884680;29;20212;-71
2022/04/26 14:40:40;;;;;;;4.60;3.10;;;10.30;99.90;;;;;;4889176;29;20656;-70
2022/04/26 14:43:09;;;;;;;5.97;3.80;;;10.30;99.90;;;;;;4887381;29;20216;-74
2022/04/26 14:45:42;;;;;;;5.70;3.87;;;10.30;99.90;;;;;;4887695;29;20282;-76
2022/04/26 14:48:10;;;;;;;4.63;3.50;;;10.20;99.90;;;;;;4901767;29;20209;-71
2022/04/26 14:50:40;;;;;;;5.63;3.87;;;10.20;99.90;;;;;;4887193;29;20239;-75
2022/04/26 14:53:07;;;;;;;6.60;4.10;;;10.20;99.90;;;;;;4887904;29;20201;-71
2022/04/26 14:55:54;;;;;;;6.40;3.80;;;10.20;99.90;;;;;;4885135;29;20320;-73
2022/04/26 14:58:20;;;;;;;5.97;4.00;;;10.20;99.90;;;;;;4885928;29;20272;-70
2022/04/26 15:00:47;;;;;;;6.43;3.80;;;10.20;99.90;;;;;;4886386;29;20235;-73
2022/04/26 15:03:14;;;;;;;7.10;4.30;;;10.20;99.90;;;;;;4887769;29;20435;-71
2022/04/26 15:05:40;;;;;;;6.53;4.30;;;10.30;99.90;;;;;;4886975;29;20208;-72
2022/04/26 15:10:52;;;;;;;4.77;3.77;;;10.40;99.90;;;;;;4884541;29;20641;-70
2022/04/26 15:18:51;;;;;;;6.37;4.57;;;10.50;99.90;;;;;;4885899;29;20212;-70
2022/04/26 15:21:18;;;;;;;4.20;3.70;;;10.40;99.90;;;;;;4883759;29;20233;-71
2022/04/26 15:23:45;;;;;;;5.77;3.67;;;10.40;99.90;;;;;;4884426;29;20661;-71
2022/04/26 15:26:12;;;;;;;5.43;4.00;;;10.50;99.90;;;;;;4887635;29;20197;-73
2022/04/26 15:28:39;;;;;;;6.27;4.20;;;10.60;99.90;;;;;;4900726;29;20204;-73
2022/04/26 15:31:06;;;;;;;5.77;3.93;;;10.60;99.90;;;;;;4885208;29;20947;-71
2022/04/26 15:33:33;;;;;;;5.67;3.77;;;10.80;99.90;;;;;;4887100;29;20254;-72
2022/04/26 15:36:00;;;;;;;7.53;4.10;;;10.90;99.90;;;;;;4884765;29;20212;-71
2022/04/26 15:38:27;;;;;;;6.57;4.47;;;11.00;99.90;;;;;;4885946;29;21668;-71
2022/04/26 15:40:54;;;;;;;5.63;4.00;;;10.90;99.90;;;;;;4886651;29;20227;-71
2022/04/26 15:43:23;;;;;;;6.30;4.10;;;10.90;99.90;;;;;;4887111;29;20532;-73
2022/04/26 15:45:49;;;;;;;5.40;3.50;;;10.80;99.90;;;;;;4886000;29;20210;-71
2022/04/26 15:48:16;;;;;;;6.50;4.40;;;10.90;99.90;;;;;;4885097;29;20200;-72
2022/04/26 15:50:43;;;;;;;6.07;4.00;;;10.90;99.90;;;;;;4887420;29;20232;-71
2022/04/26 15:53:10;;;;;;;5.90;3.90;;;10.80;99.90;;;;;;4912421;29;20209;-72
2022/04/26 15:55:37;;;;;;;4.80;3.90;;;10.80;99.90;;;;;;4887261;29;20216;-71
2022/04/26 15:58:04;;;;;;;5.07;4.00;;;10.80;99.90;;;;;;4883280;29;20686;-70
2022/04/26 16:00:31;;;;;;;5.10;3.67;;;10.80;99.90;;;;;;4882220;29;20303;-72
2022/04/26 16:02:57;;;;;;;6.00;3.83;;;10.80;99.90;;;;;;4906431;29;20205;-69
2022/04/26 16:05:24;;;;;;;5.97;3.97;;;10.80;99.90;;;;;;4889947;29;20264;-69
2022/04/26 16:07:51;;;;;;;5.40;3.70;;;10.70;99.90;;;;;;4886889;29;20237;-70
2022/04/26 16:21:25;;;;;;;6.17;4.30;;;10.70;99.90;;;;;;4892460;29;20229;-71
2022/04/26 16:23:54;;;;;;;6.80;4.47;;;10.70;99.90;;;;;;4886759;29;20205;-70
2022/04/26 16:26:22;;;;;;;6.10;4.03;;;10.70;99.90;;;;;;4891927;29;20193;-69
2022/04/26 16:28:51;;;;;;;8.87;4.57;;;10.70;99.90;;;;;;4893476;29;20200;-69
2022/04/26 16:31:27;;;;;;;6.10;4.50;;;10.60;99.90;;;;;;4890821;29;20552;-80
2022/04/26 16:33:56;;;;;;;7.27;4.40;;;10.60;99.90;;;;;;4890799;29;20225;-71
2022/04/26 16:36:23;;;;;;;6.03;4.50;;;10.70;99.90;;;;;;4895803;29;20195;-71
2022/04/26 16:38:50;;;;;;;5.93;4.50;;;10.70;99.90;;;;;;4893954;29;20207;-70
2022/04/26 16:41:18;;;;;;;6.83;4.80;;;10.80;99.90;;;;;;4897558;29;20231;-72
2022/04/26 16:43:46;;;;;;;6.53;4.70;;;10.80;99.90;;;;;;4890990;29;20211;-69
2022/04/26 16:46:18;;;;;;;8.23;5.00;;;10.90;99.90;;;;;;4902656;29;20206;-70
2022/04/26 16:48:46;;;;;;;6.77;4.63;;;10.90;99.90;;;;;;4892270;29;20680;-71
2022/04/26 16:51:14;;;;;;;8.83;5.00;;;11.00;99.90;;;;;;4892967;29;20224;-68
2022/04/26 16:53:44;;;;;;;6.87;4.90;;;11.20;99.90;;;;;;4909670;29;20733;-73
2022/04/26 16:56:10;;;;;;;6.57;4.40;;;11.20;99.90;;;;;;4889345;29;20573;-72
2022/04/26 16:58:38;;;;;;;6.57;4.80;;;11.20;99.90;;;;;;4887230;29;20220;-76
2022/04/26 17:01:05;;;;;;;8.87;5.00;;;11.30;99.90;;;;;;4883022;29;20803;-76
2022/04/26 17:03:32;;;;;;;6.90;4.53;;;11.30;99.90;;;;;;4887933;29;20208;-80
2022/04/26 17:05:58;;;;;;;8.03;4.67;;;11.40;99.90;;;;;;4893888;29;20744;-78
2022/04/26 17:08:26;;;;;;;6.03;4.60;;;11.50;99.90;;;;;;4895070;29;20209;-81
2022/04/26 17:11:41;;;;;;;6.83;4.70;;;11.60;99.90;;;;;;4892219;29;20225;-80
2022/04/26 17:13:42;;;;;;;7.37;4.40;;;11.60;99.90;;;;;;4894369;29;20208;-82
2022/04/26 17:16:09;;;;;;;5.90;4.07;;;11.70;99.90;;;;;;4896616;29;20215;-80
2022/04/26 17:18:36;;;;;;;5.80;4.30;;;11.70;99.90;;;;;;4891349;29;20204;-78
2022/04/26 17:21:03;;;;;;;7.30;4.10;;;11.70;99.90;;;;;;4890544;29;21190;-80
2022/04/26 17:23:30;;;;;;;7.43;4.77;;;11.70;99.90;;;;;;4889212;29;20315;-81
2022/04/26 17:25:57;;;;;;;6.60;4.53;;;11.60;99.90;;;;;;4893546;29;20566;-82